Desert Palms Park, AZ

11:52 PM MST on December 05, 2016 (GMT -0700)
Tanque Verde Acres | | Change Station

Elev 2546 ft 32.25 °N, 110.79 °W | Updated 1 second ago

Clear
Clear
38.8 °F
Feels Like 39 °F
N
0.0
Wind Variable Wind from WNW
Gusts 2.0 mph

Today
High -- | Low -- °F
--% Chance of Precip.
Yesterday
High -- | Low -- °F
Precip. -- in
Pressure 29.92 in
Visibility 10.0 miles
Clouds Clear
Windchill 39 °F
Dew Point 23 °F
Humidity 52%
Rainfall in
Snow Depth Not available.
7:10 AM 5:17 PM
Waxing Crescent, 39% visible
METAR KDMA 060558Z AUTO 17004KT 10SM CLR 08/M06 A2997 RMK AO2 SLP130 T00811061 10180 20078 52012 CHINO RWY30 $
Pressure 29.92 in
Visibility 10.0 miles
Clouds Clear
Windchill 39 °F
Dew Point 23 °F
Humidity 52%
Rainfall in
Snow Depth Not available.
7:10 AM 5:17 PM
Waxing Crescent, 39% visible
METAR KDMA 060558Z AUTO 17004KT 10SM CLR 08/M06 A2997 RMK AO2 SLP130 T00811061 10180 20078 52012 CHINO RWY30 $

10-Day Weather Forecast

Almanac

Astronomy

Dec. 05, 2016 Rise Set
Actual Time
Civil Twilight
Nautical Twilight
Astronomical Twilight
Moon
Length of Visible Light
Length of Day
Tomorrow will be .
, % of the Moon is Illuminated

Today's Extremes

State Highs State Lows

Community

WunderPhotos

Upload Photos

1,955,932 photos uploaded!

WunderBlog® & News

Nearby

Air Quality

  Air Quality AQ Index Pollutant
Not available.

Snow Depth

Station Depth Elevation

Earthquake Activity

City Distance Mag. Time & Date
Minimum magnitude displayed is 2.5.

Coastal Water Temperatures

Place Temperature

Stations

Nearby Weather Stations

Station Location Temp. Windchill Dew Point Humidity Wind Precip. Elev Updated Type
                   

Watches & Warnings

There are currently no watches in effect.